Cathlamet — WYR7641 — position and weather

sailwx.info

Track history (hours):
 
Tides and Currents Weather Stations Pressure Air Temp Water Temp Dewpoint Dewpoint Depression Visibility Wind Speed Wind Dir Waves Ship Positions

Cathlamet

Owner: WASHINGTON, STATE OF; Dept. of Transportation, OLYMPIA, WA. More information available from US FCC via Universal Licensing System and Coast Guard Vessel Documentation Center.

Last reported at 2015-May-29 07:34 UTC. Time now 2015-May-29 08:23 UTC.
Position N 47°31' W 122°27'.

Length 100 m.

Type: Passenger vessel. MMSI: 366773070.

Date/timePositionNaut miles runAvg speedWind from/ knotsBaromVisibWave heightAir tempDewpointWater temp
2015-May-29 07:34N 47°31' W 122°27'2 2.0
2015-May-29 06:33N 47°31' W 122°24'2 2.5
2015-May-29 05:33N 47°31' W 122°27'0 0.4
2015-May-29 04:33N 47°31' W 122°28'0 0.2
2015-May-29 03:34N 47°31' W 122°28'111.9
2015-May-29 03:29N 47°31' W 122°29'3 3.5
2015-May-29 02:34N 47°31' W 122°25'1 1.3
2015-May-29 02:09N 47°31' W 122°25'3 5.3
2015-May-29 01:33N 47°31' W 122°30'1 3.7
2015-May-29 01:14N 47°31' W 122°28'3 4.2
2015-May-29 00:33N 47°31' W 122°24'0 1.2
2015-May-29 00:24N 47°31' W 122°24'0 0.2
2015-May-28 23:33N 47°31' W 122°24'1 3.6
2015-May-28 23:23N 47°31' W 122°25'1 0.7
2015-May-28 22:33N 47°31' W 122°24'0 0.5
2015-May-28 22:08N 47°31' W 122°24'3 5.6
2015-May-28 21:34N 47°31' W 122°29'115.3
2015-May-28 21:28N 47°31' W 122°27'1 0.6
2015-May-28 20:33N 47°31' W 122°26'1 1.6
2015-May-28 19:56N 47°31' W 122°25'2 5.5
2015-May-28 19:33N 47°31' W 122°28'112.3
2015-May-28 19:31N 47°31' W 122°29'3 3.5
2015-May-28 18:33N 47°31' W 122°24'3 7.0
2015-May-28 18:10N 47°31' W 122°28'2 4.0
2015-May-28 17:33N 47°31' W 122°24'213.4
2015-May-28 17:24N 47°31' W 122°27'0 0.4
2015-May-28 16:33N 47°31' W 122°28'0 0.0
2015-May-28 16:33N 47°31' W 122°28'0 0.0
2015-May-28 15:34N 47°31' W 122°28'0 0.0
2015-May-28 15:32N 47°31' W 122°28'2 2.5
2015-May-28 14:33N 47°31' W 122°24'012.5
2015-May-28 14:33N 47°31' W 122°24'0 0.4
2015-May-28 13:34N 47°31' W 122°24'010.5
2015-May-28 13:32N 47°31' W 122°24'2 2.4
2015-May-28 12:33N 47°31' W 122°28'2 6.3
2015-May-28 12:17N 47°31' W 122°25'2 2.4
2015-May-28 11:33N 47°31' W 122°28'0 0.9
2015-May-28 11:32N 47°31' W 122°28'1 1.2
2015-May-28 10:34N 47°31' W 122°30'0 3.3
2015-May-28 10:32N 47°31' W 122°30'1 1.3
2015-May-28 09:33N 47°31' W 122°28'0 0.0
2015-May-28 09:26N 47°31' W 122°28'1 1.5
2015-May-28 08:33N 47°31' W 122°30'0 1.3
2015-May-28 08:31N 47°31' W 122°30'2 2.1
2015-May-28 07:34N 47°31' W 122°27'116.6
2015-May-28 07:31N 47°31' W 122°28'3 2.9
2015-May-28 06:33N 47°31' W 122°24'1 4.6
2015-May-28 06:21N 47°32' W 122°25'312.3
2015-May-28 06:06N 47°31' W 122°30'2 3.1
2015-May-28 05:33N 47°31' W 122°27'0 0.4
2015-May-28 04:33N 47°31' W 122°28'0 8.1
2015-May-28 04:31N 47°31' W 122°27'1 0.7
2015-May-28 03:33N 47°31' W 122°28'112.4
2015-May-28 03:30N 47°31' W 122°30'4 4.0
2015-May-28 02:33N 47°31' W 122°24'1 2.4
2015-May-28 02:09N 47°31' W 122°25'3 4.9
2015-May-28 01:34N 47°31' W 122°30'0 0.8
2015-May-28 01:29N 47°31' W 122°30'4 4.4
2015-May-28 00:33N 47°31' W 122°24'2 8.6
2015-May-28 00:19N 47°31' W 122°27'2 2.8
2015-May-27 23:33N 47°31' W 122°24'0 1.5
2015-May-27 23:28N 47°31' W 122°24'0 0.1
2015-May-27 22:33N 47°31' W 122°24'1 2.2
2015-May-27 22:13N 47°31' W 122°25'3 3.8
2015-May-27 21:33N 47°31' W 122°29'014.8
2015-May-27 21:33N 47°31' W 122°28'2 2.0
2015-May-27 20:34N 47°31' W 122°26'1 1.9
2015-May-27 20:02N 47°31' W 122°24'3 6.3
2015-May-27 19:33N 47°31' W 122°28'010.5
2015-May-27 19:32N 47°31' W 122°29'3 3.4
2015-May-27 18:33N 47°31' W 122°24'1 3.6
2015-May-27 18:20N 47°31' W 122°25'1 1.0
2015-May-27 17:33N 47°31' W 122°24'113.1
2015-May-27 17:30N 47°31' W 122°25'2 2.1
2015-May-27 16:33N 47°31' W 122°28'0 0.0
2015-May-27 16:33N 47°31' W 122°28'0 0.0
2015-May-27 15:33N 47°31' W 122°28'0 0.0
2015-May-27 15:33N 47°31' W 122°28'2 2.5
2015-May-27 14:34N 47°31' W 122°24'012.4
2015-May-27 14:33N 47°31' W 122°24'0 0.2
2015-May-27 13:34N 47°31' W 122°24'012.4
2015-May-27 13:33N 47°31' W 122°24'2 2.5
2015-May-27 12:33N 47°31' W 122°28'0 0.0
2015-May-27 12:33N 47°31' W 122°28'0 0.0
2015-May-27 11:33N 47°31' W 122°28'0 0.0
2015-May-27 11:32N 47°31' W 122°28'1 1.1
2015-May-27 10:34N 47°31' W 122°29'0 8.6
2015-May-27 10:32N 47°31' W 122°30'1 1.3
2015-May-27 09:33N 47°31' W 122°28'0 0.0
2015-May-27 09:31N 47°31' W 122°28'1 1.3
2015-May-27 08:33N 47°31' W 122°30'0 1.6
2015-May-27 08:32N 47°31' W 122°30'2 2.2
2015-May-27 07:34N 47°31' W 122°27'117.1
2015-May-27 07:32N 47°31' W 122°27'2 2.5
2015-May-27 06:33N 47°31' W 122°24'0 0.8
2015-May-27 06:21N 47°31' W 122°24'317.1
2015-May-27 06:11N 47°31' W 122°28'0 0.7
2015-May-27 05:34N 47°31' W 122°28'0 0.1
2015-May-27 04:33N 47°31' W 122°28'0 6.4
2015-May-27 04:31N 47°31' W 122°28'0 0.4
2015-May-27 03:34N 47°31' W 122°28'113.1
2015-May-27 03:31N 47°31' W 122°29'3 3.4
2015-May-27 02:33N 47°31' W 122°24'0 0.6
2015-May-27 02:11N 47°31' W 122°25'4 5.7
2015-May-27 01:34N 47°31' W 122°30'1 2.5
2015-May-27 01:20N 47°31' W 122°29'3 4.5
2015-May-27 00:33N 47°31' W 122°24'0 2.5
2015-May-27 00:24N 47°31' W 122°24'0 0.5
2015-May-26 23:33N 47°31' W 122°24'0 2.5
2015-May-26 23:24N 47°31' W 122°24'0 0.5
2015-May-26 22:33N 47°31' W 122°24'0 0.7
2015-May-26 22:09N 47°31' W 122°24'3 5.6
2015-May-26 21:33N 47°31' W 122°29'116.3
2015-May-26 21:29N 47°31' W 122°27'1 1.0
2015-May-26 20:34N 47°31' W 122°26'0 0.0
2015-May-26 20:34N 47°31' W 122°26'1 1.3
2015-May-26 19:33N 47°31' W 122°28'112.6
2015-May-26 19:28N 47°31' W 122°30'4 4.3
2015-May-26 18:33N 47°31' W 122°24'1 2.7
2015-May-26 18:17N 47°31' W 122°25'1 1.0
2015-May-26 17:33N 47°31' W 122°24'110.5
2015-May-26 17:26N 47°31' W 122°26'1 1.7
2015-May-26 16:33N 47°31' W 122°28'0 0.0
2015-May-26 16:31N 47°31' W 122°28'0 0.0
2015-May-26 15:33N 47°31' W 122°28'0 1.6
2015-May-26 15:31N 47°31' W 122°28'2 2.6
2015-May-26 14:34N 47°31' W 122°24'114.2
2015-May-26 14:30N 47°31' W 122°25'1 0.9
2015-May-26 13:33N 47°31' W 122°24'112.0
2015-May-26 13:29N 47°31' W 122°25'2 1.9
2015-May-26 12:33N 47°31' W 122°28'0 2.4
2015-May-26 12:24N 47°31' W 122°28'0 0.4
2015-May-26 11:33N 47°31' W 122°28'0 4.5
2015-May-26 11:29N 47°31' W 122°28'1 1.3
2015-May-26 10:33N 47°31' W 122°30'0 0.1
2015-May-26 09:52N 47°31' W 122°30'1 4.0
2015-May-26 09:33N 47°31' W 122°28'0 0.0
2015-May-26 09:32N 47°31' W 122°28'1 1.3
2015-May-26 08:33N 47°31' W 122°30'0 0.0
2015-May-26 08:32N 47°31' W 122°30'2 2.1
2015-May-26 07:33N 47°31' W 122°27'014.0
2015-May-26 07:32N 47°31' W 122°28'3 2.6
2015-May-26 06:33N 47°31' W 122°24'1 7.5
2015-May-26 06:27N 47°31' W 122°25'211.6
2015-May-26 06:16N 47°31' W 122°28'0 0.3
2015-May-26 05:34N 47°31' W 122°28'0 0.1
2015-May-26 04:34N 47°31' W 122°28'011.0
2015-May-26 04:31N 47°31' W 122°27'1 0.8
2015-May-26 03:33N 47°31' W 122°28'111.7
2015-May-26 03:31N 47°31' W 122°29'3 3.4
2015-May-26 02:33N 47°31' W 122°24'0 0.8
2015-May-26 02:10N 47°31' W 122°25'3 5.5
2015-May-26 01:33N 47°31' W 122°30'2 3.4
2015-May-26 00:55N 47°31' W 122°27'2 5.2
2015-May-26 00:34N 47°31' W 122°24'1 4.6
2015-May-26 00:20N 47°31' W 122°25'1 0.9
2015-May-25 23:34N 47°31' W 122°24'1 3.6
2015-May-25 23:25N 47°31' W 122°25'1 1.0
2015-May-25 22:33N 47°31' W 122°24'1 2.0
2015-May-25 22:10N 47°31' W 122°25'2 2.7
2015-May-25 21:33N 47°32' W 122°27'115.6
2015-May-25 21:29N 47°32' W 122°26'1 1.1
2015-May-25 20:33N 47°31' W 122°24'0 0.4
2015-May-25 20:04N 47°31' W 122°24'3 5.1
2015-May-25 19:33N 47°31' W 122°28'111.9
2015-May-25 19:29N 47°31' W 122°30'4 4.2
2015-May-25 18:33N 47°31' W 122°24'2 4.8
2015-May-25 18:12N 47°31' W 122°26'2 2.6
2015-May-25 17:33N 47°31' W 122°24'1 4.5
2015-May-25 17:27N 47°31' W 122°25'2 2.6
2015-May-25 16:34N 47°31' W 122°28'0 4.0
2015-May-25 16:32N 47°31' W 122°28'0 0.0
2015-May-25 15:33N 47°31' W 122°28'0 0.0
2015-May-25 15:32N 47°31' W 122°28'3 2.7
2015-May-25 14:34N 47°31' W 122°24'010.7
2015-May-25 14:31N 47°31' W 122°25'0 0.3
2015-May-25 13:34N 47°31' W 122°24'112.4
2015-May-25 13:31N 47°31' W 122°25'2 2.1
2015-May-25 12:33N 47°31' W 122°28'0 0.1
2015-May-25 12:25N 47°31' W 122°28'0 0.0
2015-May-25 11:33N 47°31' W 122°28'1 5.4
2015-May-25 11:19N 47°31' W 122°30'0 0.1
2015-May-25 10:33N 47°31' W 122°30'0 0.3
2015-May-25 10:19N 47°31' W 122°30'1 1.7
2015-May-25 09:33N 47°31' W 122°28'1 6.8
2015-May-25 09:22N 47°31' W 122°26'1 1.6
2015-May-25 08:34N 47°31' W 122°28'0 8.8
2015-May-25 08:32N 47°31' W 122°28'1 0.7
2015-May-25 07:34N 47°31' W 122°27'015.0
2015-May-25 07:32N 47°31' W 122°28'3 2.7
2015-May-25 06:33N 47°31' W 122°24'1 6.1
2015-May-25 06:26N 47°31' W 122°25'3 9.3
2015-May-25 06:05N 47°31' W 122°30'2 4.7
2015-May-25 05:33N 47°31' W 122°26'0 0.3
2015-May-25 04:33N 47°31' W 122°26'0 0.4
2015-May-25 04:00N 47°31' W 122°25'3 6.7
2015-May-25 03:34N 47°31' W 122°30'0 0.4
2015-May-25 03:15N 47°31' W 122°30'4 5.7
2015-May-25 02:33N 47°31' W 122°24'1 3.3
2015-May-25 02:19N 47°31' W 122°25'1 1.0
2015-May-25 01:34N 47°31' W 122°24'0 1.8
2015-May-25 01:23N 47°31' W 122°24'0 0.4
2015-May-25 00:33N 47°31' W 122°24'1 3.6
2015-May-25 00:19N 47°31' W 122°25'3 3.6
2015-May-24 23:33N 47°31' W 122°29'073.7
2015-May-24 23:33N 47°31' W 122°29'1 1.0
2015-May-24 22:33N 47°31' W 122°28'0 0.0
2015-May-24 22:33N 47°31' W 122°28'0 0.5
2015-May-24 21:33N 47°31' W 122°27'011.3
2015-May-24 21:33N 47°31' W 122°27'2 2.0
2015-May-24 20:33N 47°31' W 122°24'0 0.6
2015-May-24 20:12N 47°31' W 122°25'4 5.6
2015-May-24 19:33N 47°31' W 122°30'0 0.8
2015-May-24 19:30N 47°31' W 122°30'3 3.5
2015-May-24 18:33N 47°31' W 122°25'115.0
2015-May-24 18:31N 47°31' W 122°26'2 1.7
2015-May-24 17:33N 47°31' W 122°28'0 4.0
2015-May-24 17:31N 47°31' W 122°28'0 0.2
2015-May-24 16:33N 47°31' W 122°28'0 6.6
2015-May-24 16:30N 47°31' W 122°28'3 3.0
2015-May-24 15:33N 47°31' W 122°24'0 0.7
2015-May-24 15:14N 47°31' W 122°24'4 5.6
2015-May-24 14:33N 47°31' W 122°30'0 0.8
2015-May-24 14:29N 47°31' W 122°30'4 4.1
2015-May-24 13:33N 47°31' W 122°24'111.9
2015-May-24 13:29N 47°31' W 122°25'2 1.9
2015-May-24 12:34N 47°31' W 122°28'0 0.1
2015-May-24 12:24N 47°31' W 122°28'0 0.0
2015-May-24 11:33N 47°31' W 122°28'0 5.0
2015-May-24 11:29N 47°31' W 122°28'1 1.5
2015-May-24 10:33N 47°31' W 122°30'0 0.0
2015-May-24 10:29N 47°31' W 122°30'1 1.5
2015-May-24 09:33N 47°31' W 122°28'0 0.0
2015-May-24 09:33N 47°31' W 122°28'1 1.3
2015-May-24 08:33N 47°31' W 122°30'0 4.9
2015-May-24 08:28N 47°31' W 122°29'2 1.8
2015-May-24 07:33N 47°31' W 122°27'013.6
2015-May-24 07:33N 47°31' W 122°27'2 2.3
2015-May-24 06:34N 47°31' W 122°24'1 6.8
2015-May-24 06:23N 47°32' W 122°26'311.9
2015-May-24 06:07N 47°31' W 122°30'2 2.7
2015-May-24 05:34N 47°31' W 122°27'1 0.8
2015-May-24 04:34N 47°31' W 122°26'011.4
2015-May-24 04:32N 47°31' W 122°26'2 1.8
2015-May-24 03:34N 47°31' W 122°29'0 9.0
2015-May-24 03:32N 47°31' W 122°29'4 3.6
2015-May-24 02:33N 47°31' W 122°24'1 6.8
2015-May-24 02:22N 47°31' W 122°26'1 1.1
2015-May-24 01:33N 47°31' W 122°24'014.8
2015-May-24 01:31N 47°31' W 122°25'1 0.6
2015-May-24 00:34N 47°31' W 122°24'114.8
2015-May-24 00:31N 47°31' W 122°25'3 3.1
2015-May-23 23:34N 47°31' W 122°30'114.8
2015-May-23 23:31N 47°31' W 122°28'1 0.6
2015-May-23 22:33N 47°31' W 122°28'0 0.0
2015-May-23 22:26N 47°31' W 122°28'3 3.1
2015-May-23 21:33N 47°31' W 122°24'1 3.2
2015-May-23 21:09N 47°31' W 122°26'1 1.5
2015-May-23 20:34N 47°31' W 122°27'110.9
2015-May-23 20:29N 47°31' W 122°26'3 2.9
2015-May-23 19:33N 47°31' W 122°30'1 4.7
2015-May-23 19:24N 47°31' W 122°29'3 3.6
2015-May-23 18:34N 47°31' W 122°24'021.2
2015-May-23 18:33N 47°31' W 122°24'2 2.4
2015-May-23 17:33N 47°31' W 122°28'0 3.1
2015-May-23 17:27N 47°31' W 122°28'0 0.3
2015-May-23 16:34N 47°31' W 122°28'0 5.2
2015-May-23 16:32N 47°31' W 122°28'3 2.8
2015-May-23 15:34N 47°31' W 122°24'0 1.0
2015-May-23 15:12N 47°31' W 122°24'4 5.8
2015-May-23 14:33N 47°31' W 122°30'0 0.0
2015-May-23 14:31N 47°31' W 122°30'4 4.1
2015-May-23 13:34N 47°31' W 122°24'011.6
2015-May-23 13:31N 47°31' W 122°25'2 2.3
2015-May-23 12:33N 47°31' W 122°28'0 0.0
2015-May-23 12:26N 47°31' W 122°28'0 0.1
2015-May-23 11:33N 47°31' W 122°28'1 7.7
2015-May-23 11:30N 47°31' W 122°28'1 1.3
2015-May-23 10:33N 47°31' W 122°30'0 0.0
2015-May-23 10:24N 47°31' W 122°30'1 1.5
2015-May-23 09:33N 47°31' W 122°28'0 0.0
2015-May-23 09:29N 47°31' W 122°28'1 1.4
2015-May-23 08:33N 47°31' W 122°30'0 3.9
2015-May-23 08:29N 47°31' W 122°30'2 2.0
2015-May-23 07:34N 47°31' W 122°27'117.1
2015-May-23 07:29N 47°31' W 122°29'3 3.5
2015-May-23 06:33N 47°31' W 122°24'0 1.4
2015-May-23 06:27N 47°31' W 122°24'416.2
2015-May-23 06:12N 47°31' W 122°30'2 3.7
2015-May-23 05:34N 47°31' W 122°26'2 2.4
2015-May-23 04:33N 47°31' W 122°30'3 6.4
2015-May-23 04:06N 47°31' W 122°25'2 3.1
2015-May-23 03:34N 47°31' W 122°28'0 0.7
2015-May-23 03:25N 47°31' W 122°28'0 0.3
2015-May-23 02:34N 47°31' W 122°28'112.4
2015-May-23 02:31N 47°31' W 122°29'3 3.4
2015-May-23 01:33N 47°31' W 122°24'1 1.7
2015-May-23 01:14N 47°31' W 122°25'2 3.4
2015-May-23 00:33N 47°31' W 122°28'0 0.0
2015-May-23 00:29N 47°31' W 122°28'0 0.0
2015-May-22 23:33N 47°31' W 122°28'0 0.1
2015-May-22 23:29N 47°31' W 122°28'1 1.5
2015-May-22 22:33N 47°31' W 122°26'115.7
2015-May-22 22:29N 47°31' W 122°28'3 2.8
2015-May-22 21:33N 47°31' W 122°24'1 9.5
2015-May-22 21:29N 47°31' W 122°25'2 2.2
2015-May-22 20:33N 47°31' W 122°28'0 0.0
2015-May-22 20:33N 47°31' W 122°28'1 1.4
2015-May-22 19:34N 47°31' W 122°26'010.5
2015-May-22 19:33N 47°31' W 122°26'1 1.3
2015-May-22 18:33N 47°31' W 122°28'0 0.0
2015-May-22 18:33N 47°31' W 122°28'1 0.5
2015-May-22 17:33N 47°31' W 122°27'213.5
2015-May-22 17:26N 47°31' W 122°25'2 2.2
2015-May-22 16:34N 47°31' W 122°28'0 3.9
2015-May-22 16:31N 47°31' W 122°28'3 2.8
2015-May-22 15:33N 47°31' W 122°24'4 7.1
2015-May-22 15:00N 47°31' W 122°30'1 3.0
2015-May-22 14:33N 47°31' W 122°28'0 0.0
2015-May-22 14:29N 47°31' W 122°28'0 0.0
2015-May-22 13:33N 47°31' W 122°28'0 0.0
2015-May-22 13:28N 47°31' W 122°28'0 0.0
2015-May-22 12:33N 47°31' W 122°28'0 0.0
2015-May-22 12:07N 47°31' W 122°28'0 0.0
2015-May-22 11:33N 47°31' W 122°28'0 0.0
2015-May-22 11:33N 47°31' W 122°28'0 0.0
2015-May-22 10:33N 47°31' W 122°28'0 0.0
2015-May-22 10:32N 47°31' W 122°28'0 0.0
2015-May-22 09:33N 47°31' W 122°28'0 0.0
2015-May-22 09:32N 47°31' W 122°28'0 0.0
2015-May-22 08:33N 47°31' W 122°28'0 0.0
2015-May-22 08:11N 47°31' W 122°28'0 0.0
2015-May-22 07:33N 47°31' W 122°28'0 0.1
2015-May-22 07:31N 47°31' W 122°28'0 0.0
2015-May-22 06:33N 47°31' W 122°28'0 0.0
2015-May-22 06:30N 47°31' W 122°28'0 0.0
2015-May-22 06:05N 47°31' W 122°28'0 0.0
2015-May-22 05:33N 47°31' W 122°28'1 1.3
2015-May-22 04:33N 47°31' W 122°30'0 3.1
2015-May-22 04:29N 47°31' W 122°29'2 1.9
2015-May-22 03:34N 47°31' W 122°27'1 2.6
2015-May-22 03:18N 47°31' W 122°28'0 0.1
2015-May-22 02:34N 47°31' W 122°28'0 0.0
2015-May-22 02:33N 47°31' W 122°28'3 2.8
2015-May-22 01:34N 47°31' W 122°24'1 2.5
2015-May-22 01:13N 47°31' W 122°25'2 3.1
2015-May-22 00:33N 47°31' W 122°28'0 0.0
2015-May-22 00:32N 47°31' W 122°28'0 0.0
2015-May-21 23:33N 47°31' W 122°28'0 0.0
2015-May-21 23:32N 47°31' W 122°28'1 0.9
2015-May-21 22:33N 47°31' W 122°27'115.5
2015-May-21 22:31N 47°31' W 122°27'3 2.7
2015-May-21 21:33N 47°31' W 122°24'0 8.5
2015-May-21 21:30N 47°31' W 122°25'2 2.4
2015-May-21 20:33N 47°31' W 122°28'0 0.0
2015-May-21 20:25N 47°31' W 122°28'0 0.0
2015-May-21 19:33N 47°31' W 122°28'0 0.8
2015-May-21 19:25N 47°31' W 122°28'0 0.1
2015-May-21 18:33N 47°31' W 122°28'0 0.2
2015-May-21 18:29N 47°31' W 122°28'3 3.0
2015-May-21 17:33N 47°31' W 122°24'3 4.1
2015-May-21 16:52N 47°31' W 122°28'1 4.2
2015-May-21 16:33N 47°31' W 122°30'0 0.7
2015-May-21 16:23N 47°31' W 122°30'1 1.6
2015-May-21 15:33N 47°31' W 122°28'0 0.2
2015-May-21 15:32N 47°31' W 122°28'0 0.0
2015-May-21 14:34N 47°31' W 122°28'0 0.2
2015-May-21 14:32N 47°31' W 122°28'0 0.0
2015-May-21 13:33N 47°31' W 122°28'0 0.0
2015-May-21 13:32N 47°31' W 122°28'0 0.0
2015-May-21 12:33N 47°31' W 122°28'0 0.0
2015-May-21 12:31N 47°31' W 122°28'0 0.0
2015-May-21 11:33N 47°31' W 122°28'0 0.2
2015-May-21 11:32N 47°31' W 122°28'0 0.0
2015-May-21 10:33N 47°31' W 122°28'0 0.1
2015-May-21 10:31N 47°31' W 122°28'0 0.0
2015-May-21 09:33N 47°31' W 122°28'0 0.0
2015-May-21 09:31N 47°31' W 122°28'0 0.0
2015-May-21 08:33N 47°31' W 122°28'0 0.0
2015-May-21 08:31N 47°31' W 122°28'0 0.0
2015-May-21 07:33N 47°31' W 122°28'0 0.0
2015-May-21 07:30N 47°31' W 122°28'0 0.0
2015-May-21 06:33N 47°31' W 122°28'0 0.0
2015-May-21 06:30N 47°31' W 122°28'0 0.0
2015-May-21 06:05N 47°31' W 122°28'0 0.0
2015-May-21 05:33N 47°31' W 122°28'1 1.3
2015-May-21 04:34N 47°31' W 122°30'0 2.0
2015-May-21 04:29N 47°31' W 122°30'2 2.0
2015-May-21 03:34N 47°31' W 122°27'1 9.1
2015-May-21 03:29N 47°31' W 122°28'0 0.0
2015-May-21 02:34N 47°31' W 122°28'1 4.9
2015-May-21 02:17N 47°31' W 122°30'4 5.5
2015-May-21 01:33N 47°31' W 122°24'1 1.7
2015-May-21 01:12N 47°31' W 122°25'2 3.4
2015-May-21 00:33N 47°31' W 122°28'0 0.0
2015-May-21 00:32N 47°31' W 122°28'0 0.0
2015-May-20 23:34N 47°31' W 122°28'0 0.2
2015-May-20 23:31N 47°31' W 122°28'1 0.6
2015-May-20 22:33N 47°31' W 122°27'113.4
2015-May-20 22:31N 47°31' W 122°28'3 2.9
2015-May-20 21:33N 47°31' W 122°24'0 6.6
2015-May-20 21:30N 47°31' W 122°24'2 2.6
2015-May-20 20:33N 47°31' W 122°28'0 0.1
2015-May-20 20:30N 47°31' W 122°28'2 1.6
2015-May-20 19:33N 47°31' W 122°26'114.3
2015-May-20 19:30N 47°31' W 122°27'1 0.6
2015-May-20 18:34N 47°31' W 122°27'0 3.3
2015-May-20 18:29N 47°31' W 122°28'1 0.9
2015-May-20 17:33N 47°31' W 122°27'1 2.1
2015-May-20 16:54N 47°31' W 122°25'2 6.5
2015-May-20 16:34N 47°31' W 122°28'0 5.4
2015-May-20 16:34N 47°31' W 122°28'3 2.7
2015-May-20 15:33N 47°31' W 122°24'213.0
2015-May-20 15:22N 47°31' W 122°27'0 0.5
2015-May-20 14:33N 47°31' W 122°28'0 0.0
2015-May-20 14:33N 47°31' W 122°28'0 0.0
2015-May-20 13:33N 47°31' W 122°28'0 0.0
2015-May-20 13:33N 47°31' W 122°28'0 0.0
2015-May-20 12:33N 47°31' W 122°28'0 0.0
2015-May-20 12:17N 47°31' W 122°28'0 0.0
2015-May-20 11:33N 47°31' W 122°28'0 0.0
2015-May-20 10:33N 47°31' W 122°28'0 0.1
2015-May-20 10:30N 47°31' W 122°28'0 0.0
2015-May-20 09:33N 47°31' W 122°28'0 0.1
2015-May-20 09:30N 47°31' W 122°28'0 0.0
2015-May-20 08:33N 47°31' W 122°28'0 0.0
2015-May-20 08:29N 47°31' W 122°28'0 0.0
2015-May-20 07:33N 47°31' W 122°28'0 0.0
2015-May-20 07:24N 47°31' W 122°28'0 0.0
2015-May-20 06:34N 47°31' W 122°28'0 0.0
2015-May-20 06:33N 47°31' W 122°28'0 0.0
2015-May-20 06:13N 47°31' W 122°28'0 0.0
2015-May-20 05:33N 47°31' W 122°28'1 0.7
2015-May-20 04:34N 47°31' W 122°29'0 0.0
2015-May-20 04:33N 47°31' W 122°29'1 1.3
2015-May-20 03:33N 47°31' W 122°27'015.9
2015-May-20 03:32N 47°31' W 122°27'0 0.4
2015-May-20 02:33N 47°31' W 122°28'0 0.0
2015-May-20 02:33N 47°31' W 122°28'3 2.8
2015-May-20 01:33N 47°31' W 122°24'1 3.3
2015-May-20 01:13N 47°31' W 122°25'2 2.7
2015-May-20 00:33N 47°31' W 122°28'0 0.0
2015-May-20 00:32N 47°31' W 122°28'0 0.0
2015-May-19 23:33N 47°31' W 122°28'0 0.0
2015-May-19 23:32N 47°31' W 122°28'0 0.1
2015-May-19 22:34N 47°31' W 122°28'0 2.8
2015-May-19 22:31N 47°31' W 122°28'3 2.8
2015-May-19 21:33N 47°31' W 122°24'3 2.7
2015-May-19 20:33N 47°31' W 122°28'2 1.5
2015-May-19 19:33N 47°31' W 122°26'1 1.2
2015-May-19 18:33N 47°31' W 122°27'1 0.8
2015-May-19 17:33N 47°31' W 122°26'1 0.9
2015-May-19 16:34N 47°31' W 122°28'3 2.7
2015-May-19 15:33N 47°31' W 122°24'3 2.7
2015-May-19 14:34N 47°31' W 122°28'0 0.1
2015-May-19 13:33N 47°31' W 122°28'0 0.0
2015-May-19 12:33N 47°31' W 122°28'0 0.0
2015-May-19 11:45N 47°31' W 122°28'0 0.0
2015-May-19 11:33N 47°31' W 122°28'0 0.0
2015-May-19 11:30N 47°31' W 122°28'0 0.0
2015-May-19 10:33N 47°31' W 122°28'0 0.0
2015-May-19 10:30N 47°31' W 122°28'0 0.0
2015-May-19 09:33N 47°31' W 122°28'0 0.0
2015-May-19 09:30N 47°31' W 122°28'0 0.0
2015-May-19 08:33N 47°31' W 122°28'0 0.0
2015-May-19 08:30N 47°31' W 122°28'  
Track history (hours):
 
Tides and Currents Weather Stations Pressure Air Temp Water Temp Dewpoint Dewpoint Depression Visibility Wind Speed Wind Dir Waves Ship Positions

Cathlamet

Owner: WASHINGTON, STATE OF; Dept. of Transportation, OLYMPIA, WA. More information available from US FCC via Universal Licensing System and Coast Guard Vessel Documentation Center.

Last reported at 2015-May-29 07:34 UTC. Time now 2015-May-29 08:23 UTC.
Position N 47°31' W 122°27'.

Length 100 m.

Type: Passenger vessel. MMSI: 366773070.

Date/timePositionNaut miles runAvg speedWind from/ knotsBaromVisibWave heightAir tempDewpointWater temp
2015-May-29 07:34N 47°31' W 122°27'2 2.0
2015-May-29 06:33N 47°31' W 122°24'2 2.5
2015-May-29 05:33N 47°31' W 122°27'0 0.4
2015-May-29 04:33N 47°31' W 122°28'0 0.2
2015-May-29 03:34N 47°31' W 122°28'111.9
2015-May-29 03:29N 47°31' W 122°29'3 3.5
2015-May-29 02:34N 47°31' W 122°25'1 1.3
2015-May-29 02:09N 47°31' W 122°25'3 5.3
2015-May-29 01:33N 47°31' W 122°30'1 3.7
2015-May-29 01:14N 47°31' W 122°28'3 4.2
2015-May-29 00:33N 47°31' W 122°24'0 1.2
2015-May-29 00:24N 47°31' W 122°24'0 0.2
2015-May-28 23:33N 47°31' W 122°24'1 3.6
2015-May-28 23:23N 47°31' W 122°25'1 0.7
2015-May-28 22:33N 47°31' W 122°24'0 0.5
2015-May-28 22:08N 47°31' W 122°24'3 5.6
2015-May-28 21:34N 47°31' W 122°29'115.3
2015-May-28 21:28N 47°31' W 122°27'1 0.6
2015-May-28 20:33N 47°31' W 122°26'1 1.6
2015-May-28 19:56N 47°31' W 122°25'2 5.5
2015-May-28 19:33N 47°31' W 122°28'112.3
2015-May-28 19:31N 47°31' W 122°29'3 3.5
2015-May-28 18:33N 47°31' W 122°24'3 7.0
2015-May-28 18:10N 47°31' W 122°28'2 4.0
2015-May-28 17:33N 47°31' W 122°24'213.4
2015-May-28 17:24N 47°31' W 122°27'0 0.4
2015-May-28 16:33N 47°31' W 122°28'0 0.0
2015-May-28 16:33N 47°31' W 122°28'0 0.0
2015-May-28 15:34N 47°31' W 122°28'0 0.0
2015-May-28 15:32N 47°31' W 122°28'2 2.5
2015-May-28 14:33N 47°31' W 122°24'012.5
2015-May-28 14:33N 47°31' W 122°24'0 0.4
2015-May-28 13:34N 47°31' W 122°24'010.5
2015-May-28 13:32N 47°31' W 122°24'2 2.4
2015-May-28 12:33N 47°31' W 122°28'2 6.3
2015-May-28 12:17N 47°31' W 122°25'2 2.4
2015-May-28 11:33N 47°31' W 122°28'0 0.9
2015-May-28 11:32N 47°31' W 122°28'1 1.2
2015-May-28 10:34N 47°31' W 122°30'0 3.3
2015-May-28 10:32N 47°31' W 122°30'1 1.3
2015-May-28 09:33N 47°31' W 122°28'0 0.0
2015-May-28 09:26N 47°31' W 122°28'1 1.5
2015-May-28 08:33N 47°31' W 122°30'0 1.3
2015-May-28 08:31N 47°31' W 122°30'2 2.1
2015-May-28 07:34N 47°31' W 122°27'116.6
2015-May-28 07:31N 47°31' W 122°28'3 2.9
2015-May-28 06:33N 47°31' W 122°24'1 4.6
2015-May-28 06:21N 47°32' W 122°25'312.3
2015-May-28 06:06N 47°31' W 122°30'2 3.1
2015-May-28 05:33N 47°31' W 122°27'0 0.4
2015-May-28 04:33N 47°31' W 122°28'0 8.1
2015-May-28 04:31N 47°31' W 122°27'1 0.7
2015-May-28 03:33N 47°31' W 122°28'112.4
2015-May-28 03:30N 47°31' W 122°30'4 4.0
2015-May-28 02:33N 47°31' W 122°24'1 2.4
2015-May-28 02:09N 47°31' W 122°25'3 4.9
2015-May-28 01:34N 47°31' W 122°30'0 0.8
2015-May-28 01:29N 47°31' W 122°30'4 4.4
2015-May-28 00:33N 47°31' W 122°24'2 8.6
2015-May-28 00:19N 47°31' W 122°27'2 2.8
2015-May-27 23:33N 47°31' W 122°24'0 1.5
2015-May-27 23:28N 47°31' W 122°24'0 0.1
2015-May-27 22:33N 47°31' W 122°24'1 2.2
2015-May-27 22:13N 47°31' W 122°25'3 3.8
2015-May-27 21:33N 47°31' W 122°29'014.8
2015-May-27 21:33N 47°31' W 122°28'2 2.0
2015-May-27 20:34N 47°31' W 122°26'1 1.9
2015-May-27 20:02N 47°31' W 122°24'3 6.3
2015-May-27 19:33N 47°31' W 122°28'010.5
2015-May-27 19:32N 47°31' W 122°29'3 3.4
2015-May-27 18:33N 47°31' W 122°24'1 3.6
2015-May-27 18:20N 47°31' W 122°25'1 1.0
2015-May-27 17:33N 47°31' W 122°24'113.1
2015-May-27 17:30N 47°31' W 122°25'2 2.1
2015-May-27 16:33N 47°31' W 122°28'0 0.0
2015-May-27 16:33N 47°31' W 122°28'0 0.0
2015-May-27 15:33N 47°31' W 122°28'0 0.0
2015-May-27 15:33N 47°31' W 122°28'2 2.5
2015-May-27 14:34N 47°31' W 122°24'012.4
2015-May-27 14:33N 47°31' W 122°24'0 0.2
2015-May-27 13:34N 47°31' W 122°24'012.4
2015-May-27 13:33N 47°31' W 122°24'2 2.5
2015-May-27 12:33N 47°31' W 122°28'0 0.0
2015-May-27 12:33N 47°31' W 122°28'0 0.0
2015-May-27 11:33N 47°31' W 122°28'0 0.0
2015-May-27 11:32N 47°31' W 122°28'1 1.1
2015-May-27 10:34N 47°31' W 122°29'0 8.6
2015-May-27 10:32N 47°31' W 122°30'1 1.3
2015-May-27 09:33N 47°31' W 122°28'0 0.0
2015-May-27 09:31N 47°31' W 122°28'1 1.3
2015-May-27 08:33N 47°31' W 122°30'0 1.6
2015-May-27 08:32N 47°31' W 122°30'2 2.2
2015-May-27 07:34N 47°31' W 122°27'117.1
2015-May-27 07:32N 47°31' W 122°27'2 2.5
2015-May-27 06:33N 47°31' W 122°24'0 0.8
2015-May-27 06:21N 47°31' W 122°24'317.1
2015-May-27 06:11N 47°31' W 122°28'0 0.7
2015-May-27 05:34N 47°31' W 122°28'0 0.1
2015-May-27 04:33N 47°31' W 122°28'0 6.4
2015-May-27 04:31N 47°31' W 122°28'0 0.4
2015-May-27 03:34N 47°31' W 122°28'113.1
2015-May-27 03:31N 47°31' W 122°29'3 3.4
2015-May-27 02:33N 47°31' W 122°24'0 0.6
2015-May-27 02:11N 47°31' W 122°25'4 5.7
2015-May-27 01:34N 47°31' W 122°30'1 2.5
2015-May-27 01:20N 47°31' W 122°29'3 4.5
2015-May-27 00:33N 47°31' W 122°24'0 2.5
2015-May-27 00:24N 47°31' W 122°24'0 0.5
2015-May-26 23:33N 47°31' W 122°24'0 2.5
2015-May-26 23:24N 47°31' W 122°24'0 0.5
2015-May-26 22:33N 47°31' W 122°24'0 0.7
2015-May-26 22:09N 47°31' W 122°24'3 5.6
2015-May-26 21:33N 47°31' W 122°29'116.3
2015-May-26 21:29N 47°31' W 122°27'1 1.0
2015-May-26 20:34N 47°31' W 122°26'0 0.0
2015-May-26 20:34N 47°31' W 122°26'1 1.3
2015-May-26 19:33N 47°31' W 122°28'112.6
2015-May-26 19:28N 47°31' W 122°30'4 4.3
2015-May-26 18:33N 47°31' W 122°24'1 2.7
2015-May-26 18:17N 47°31' W 122°25'1 1.0
2015-May-26 17:33N 47°31' W 122°24'110.5
2015-May-26 17:26N 47°31' W 122°26'1 1.7
2015-May-26 16:33N 47°31' W 122°28'0 0.0
2015-May-26 16:31N 47°31' W 122°28'0 0.0
2015-May-26 15:33N 47°31' W 122°28'0 1.6
2015-May-26 15:31N 47°31' W 122°28'2 2.6
2015-May-26 14:34N 47°31' W 122°24'114.2
2015-May-26 14:30N 47°31' W 122°25'1 0.9
2015-May-26 13:33N 47°31' W 122°24'112.0
2015-May-26 13:29N 47°31' W 122°25'2 1.9
2015-May-26 12:33N 47°31' W 122°28'0 2.4
2015-May-26 12:24N 47°31' W 122°28'0 0.4
2015-May-26 11:33N 47°31' W 122°28'0 4.5
2015-May-26 11:29N 47°31' W 122°28'1 1.3
2015-May-26 10:33N 47°31' W 122°30'0 0.1
2015-May-26 09:52N 47°31' W 122°30'1 4.0
2015-May-26 09:33N 47°31' W 122°28'0 0.0
2015-May-26 09:32N 47°31' W 122°28'1 1.3
2015-May-26 08:33N 47°31' W 122°30'0 0.0
2015-May-26 08:32N 47°31' W 122°30'2 2.1
2015-May-26 07:33N 47°31' W 122°27'014.0
2015-May-26 07:32N 47°31' W 122°28'3 2.6
2015-May-26 06:33N 47°31' W 122°24'1 7.5
2015-May-26 06:27N 47°31' W 122°25'211.6
2015-May-26 06:16N 47°31' W 122°28'0 0.3
2015-May-26 05:34N 47°31' W 122°28'0 0.1
2015-May-26 04:34N 47°31' W 122°28'011.0
2015-May-26 04:31N 47°31' W 122°27'1 0.8
2015-May-26 03:33N 47°31' W 122°28'111.7
2015-May-26 03:31N 47°31' W 122°29'3 3.4
2015-May-26 02:33N 47°31' W 122°24'0 0.8
2015-May-26 02:10N 47°31' W 122°25'3 5.5
2015-May-26 01:33N 47°31' W 122°30'2 3.4
2015-May-26 00:55N 47°31' W 122°27'2 5.2
2015-May-26 00:34N 47°31' W 122°24'1 4.6
2015-May-26 00:20N 47°31' W 122°25'1 0.9
2015-May-25 23:34N 47°31' W 122°24'1 3.6
2015-May-25 23:25N 47°31' W 122°25'1 1.0
2015-May-25 22:33N 47°31' W 122°24'1 2.0
2015-May-25 22:10N 47°31' W 122°25'2 2.7
2015-May-25 21:33N 47°32' W 122°27'115.6
2015-May-25 21:29N 47°32' W 122°26'1 1.1
2015-May-25 20:33N 47°31' W 122°24'0 0.4
2015-May-25 20:04N 47°31' W 122°24'3 5.1
2015-May-25 19:33N 47°31' W 122°28'111.9
2015-May-25 19:29N 47°31' W 122°30'4 4.2
2015-May-25 18:33N 47°31' W 122°24'2 4.8
2015-May-25 18:12N 47°31' W 122°26'2 2.6
2015-May-25 17:33N 47°31' W 122°24'1 4.5
2015-May-25 17:27N 47°31' W 122°25'2 2.6
2015-May-25 16:34N 47°31' W 122°28'0 4.0
2015-May-25 16:32N 47°31' W 122°28'0 0.0
2015-May-25 15:33N 47°31' W 122°28'0 0.0
2015-May-25 15:32N 47°31' W 122°28'3 2.7
2015-May-25 14:34N 47°31' W 122°24'010.7
2015-May-25 14:31N 47°31' W 122°25'0 0.3
2015-May-25 13:34N 47°31' W 122°24'112.4
2015-May-25 13:31N 47°31' W 122°25'2 2.1
2015-May-25 12:33N 47°31' W 122°28'0 0.1
2015-May-25 12:25N 47°31' W 122°28'0 0.0
2015-May-25 11:33N 47°31' W 122°28'1 5.4
2015-May-25 11:19N 47°31' W 122°30'0 0.1
2015-May-25 10:33N 47°31' W 122°30'0 0.3
2015-May-25 10:19N 47°31' W 122°30'1 1.7
2015-May-25 09:33N 47°31' W 122°28'1 6.8
2015-May-25 09:22N 47°31' W 122°26'1 1.6
2015-May-25 08:34N 47°31' W 122°28'0 8.8
2015-May-25 08:32N 47°31' W 122°28'1 0.7
2015-May-25 07:34N 47°31' W 122°27'015.0
2015-May-25 07:32N 47°31' W 122°28'3 2.7
2015-May-25 06:33N 47°31' W 122°24'1 6.1
2015-May-25 06:26N 47°31' W 122°25'3 9.3
2015-May-25 06:05N 47°31' W 122°30'2 4.7
2015-May-25 05:33N 47°31' W 122°26'0 0.3
2015-May-25 04:33N 47°31' W 122°26'0 0.4
2015-May-25 04:00N 47°31' W 122°25'3 6.7
2015-May-25 03:34N 47°31' W 122°30'0 0.4
2015-May-25 03:15N 47°31' W 122°30'4 5.7
2015-May-25 02:33N 47°31' W 122°24'1 3.3
2015-May-25 02:19N 47°31' W 122°25'1 1.0
2015-May-25 01:34N 47°31' W 122°24'0 1.8
2015-May-25 01:23N 47°31' W 122°24'0 0.4
2015-May-25 00:33N 47°31' W 122°24'1 3.6
2015-May-25 00:19N 47°31' W 122°25'3 3.6
2015-May-24 23:33N 47°31' W 122°29'073.7
2015-May-24 23:33N 47°31' W 122°29'1 1.0
2015-May-24 22:33N 47°31' W 122°28'0 0.0
2015-May-24 22:33N 47°31' W 122°28'0 0.5
2015-May-24 21:33N 47°31' W 122°27'011.3
2015-May-24 21:33N 47°31' W 122°27'2 2.0
2015-May-24 20:33N 47°31' W 122°24'0 0.6
2015-May-24 20:12N 47°31' W 122°25'4 5.6
2015-May-24 19:33N 47°31' W 122°30'0 0.8
2015-May-24 19:30N 47°31' W 122°30'3 3.5
2015-May-24 18:33N 47°31' W 122°25'115.0
2015-May-24 18:31N 47°31' W 122°26'2 1.7
2015-May-24 17:33N 47°31' W 122°28'0 4.0
2015-May-24 17:31N 47°31' W 122°28'0 0.2
2015-May-24 16:33N 47°31' W 122°28'0 6.6
2015-May-24 16:30N 47°31' W 122°28'3 3.0
2015-May-24 15:33N 47°31' W 122°24'0 0.7
2015-May-24 15:14N 47°31' W 122°24'4 5.6
2015-May-24 14:33N 47°31' W 122°30'0 0.8
2015-May-24 14:29N 47°31' W 122°30'4 4.1
2015-May-24 13:33N 47°31' W 122°24'111.9
2015-May-24 13:29N 47°31' W 122°25'2 1.9
2015-May-24 12:34N 47°31' W 122°28'0 0.1
2015-May-24 12:24N 47°31' W 122°28'0 0.0
2015-May-24 11:33N 47°31' W 122°28'0 5.0
2015-May-24 11:29N 47°31' W 122°28'1 1.5
2015-May-24 10:33N 47°31' W 122°30'0 0.0
2015-May-24 10:29N 47°31' W 122°30'1 1.5
2015-May-24 09:33N 47°31' W 122°28'0 0.0
2015-May-24 09:33N 47°31' W 122°28'1 1.3
2015-May-24 08:33N 47°31' W 122°30'0 4.9
2015-May-24 08:28N 47°31' W 122°29'2 1.8
2015-May-24 07:33N 47°31' W 122°27'013.6
2015-May-24 07:33N 47°31' W 122°27'2 2.3
2015-May-24 06:34N 47°31' W 122°24'1 6.8
2015-May-24 06:23N 47°32' W 122°26'311.9
2015-May-24 06:07N 47°31' W 122°30'2 2.7
2015-May-24 05:34N 47°31' W 122°27'1 0.8
2015-May-24 04:34N 47°31' W 122°26'011.4
2015-May-24 04:32N 47°31' W 122°26'2 1.8
2015-May-24 03:34N 47°31' W 122°29'0 9.0
2015-May-24 03:32N 47°31' W 122°29'4 3.6
2015-May-24 02:33N 47°31' W 122°24'1 6.8
2015-May-24 02:22N 47°31' W 122°26'1 1.1
2015-May-24 01:33N 47°31' W 122°24'014.8
2015-May-24 01:31N 47°31' W 122°25'1 0.6
2015-May-24 00:34N 47°31' W 122°24'114.8
2015-May-24 00:31N 47°31' W 122°25'3 3.1
2015-May-23 23:34N 47°31' W 122°30'114.8
2015-May-23 23:31N 47°31' W 122°28'1 0.6
2015-May-23 22:33N 47°31' W 122°28'0 0.0
2015-May-23 22:26N 47°31' W 122°28'3 3.1
2015-May-23 21:33N 47°31' W 122°24'1 3.2
2015-May-23 21:09N 47°31' W 122°26'1 1.5
2015-May-23 20:34N 47°31' W 122°27'110.9
2015-May-23 20:29N 47°31' W 122°26'3 2.9
2015-May-23 19:33N 47°31' W 122°30'1 4.7
2015-May-23 19:24N 47°31' W 122°29'3 3.6
2015-May-23 18:34N 47°31' W 122°24'021.2
2015-May-23 18:33N 47°31' W 122°24'2 2.4
2015-May-23 17:33N 47°31' W 122°28'0 3.1
2015-May-23 17:27N 47°31' W 122°28'0 0.3
2015-May-23 16:34N 47°31' W 122°28'0 5.2
2015-May-23 16:32N 47°31' W 122°28'3 2.8
2015-May-23 15:34N 47°31' W 122°24'0 1.0
2015-May-23 15:12N 47°31' W 122°24'4 5.8
2015-May-23 14:33N 47°31' W 122°30'0 0.0
2015-May-23 14:31N 47°31' W 122°30'4 4.1
2015-May-23 13:34N 47°31' W 122°24'011.6
2015-May-23 13:31N 47°31' W 122°25'2 2.3
2015-May-23 12:33N 47°31' W 122°28'0 0.0
2015-May-23 12:26N 47°31' W 122°28'0 0.1
2015-May-23 11:33N 47°31' W 122°28'1 7.7
2015-May-23 11:30N 47°31' W 122°28'1 1.3
2015-May-23 10:33N 47°31' W 122°30'0 0.0
2015-May-23 10:24N 47°31' W 122°30'1 1.5
2015-May-23 09:33N 47°31' W 122°28'0 0.0
2015-May-23 09:29N 47°31' W 122°28'1 1.4
2015-May-23 08:33N 47°31' W 122°30'0 3.9
2015-May-23 08:29N 47°31' W 122°30'2 2.0
2015-May-23 07:34N 47°31' W 122°27'117.1
2015-May-23 07:29N 47°31' W 122°29'3 3.5
2015-May-23 06:33N 47°31' W 122°24'0 1.4
2015-May-23 06:27N 47°31' W 122°24'416.2
2015-May-23 06:12N 47°31' W 122°30'2 3.7
2015-May-23 05:34N 47°31' W 122°26'2 2.4
2015-May-23 04:33N 47°31' W 122°30'3 6.4
2015-May-23 04:06N 47°31' W 122°25'2 3.1
2015-May-23 03:34N 47°31' W 122°28'0 0.7
2015-May-23 03:25N 47°31' W 122°28'0 0.3
2015-May-23 02:34N 47°31' W 122°28'112.4
2015-May-23 02:31N 47°31' W 122°29'3 3.4
2015-May-23 01:33N 47°31' W 122°24'1 1.7
2015-May-23 01:14N 47°31' W 122°25'2 3.4
2015-May-23 00:33N 47°31' W 122°28'0 0.0
2015-May-23 00:29N 47°31' W 122°28'0 0.0
2015-May-22 23:33N 47°31' W 122°28'0 0.1
2015-May-22 23:29N 47°31' W 122°28'1 1.5
2015-May-22 22:33N 47°31' W 122°26'115.7
2015-May-22 22:29N 47°31' W 122°28'3 2.8
2015-May-22 21:33N 47°31' W 122°24'1 9.5
2015-May-22 21:29N 47°31' W 122°25'2 2.2
2015-May-22 20:33N 47°31' W 122°28'0 0.0
2015-May-22 20:33N 47°31' W 122°28'1 1.4
2015-May-22 19:34N 47°31' W 122°26'010.5
2015-May-22 19:33N 47°31' W 122°26'1 1.3
2015-May-22 18:33N 47°31' W 122°28'0 0.0
2015-May-22 18:33N 47°31' W 122°28'1 0.5
2015-May-22 17:33N 47°31' W 122°27'213.5
2015-May-22 17:26N 47°31' W 122°25'2 2.2
2015-May-22 16:34N 47°31' W 122°28'0 3.9
2015-May-22 16:31N 47°31' W 122°28'3 2.8
2015-May-22 15:33N 47°31' W 122°24'4 7.1
2015-May-22 15:00N 47°31' W 122°30'1 3.0
2015-May-22 14:33N 47°31' W 122°28'0 0.0
2015-May-22 14:29N 47°31' W 122°28'0 0.0
2015-May-22 13:33N 47°31' W 122°28'0 0.0
2015-May-22 13:28N 47°31' W 122°28'0 0.0
2015-May-22 12:33N 47°31' W 122°28'0 0.0
2015-May-22 12:07N 47°31' W 122°28'0 0.0
2015-May-22 11:33N 47°31' W 122°28'0 0.0
2015-May-22 11:33N 47°31' W 122°28'0 0.0
2015-May-22 10:33N 47°31' W 122°28'0 0.0
2015-May-22 10:32N 47°31' W 122°28'0 0.0
2015-May-22 09:33N 47°31' W 122°28'0 0.0
2015-May-22 09:32N 47°31' W 122°28'0 0.0
2015-May-22 08:33N 47°31' W 122°28'0 0.0
2015-May-22 08:11N 47°31' W 122°28'0 0.0
2015-May-22 07:33N 47°31' W 122°28'0 0.1
2015-May-22 07:31N 47°31' W 122°28'0 0.0
2015-May-22 06:33N 47°31' W 122°28'0 0.0
2015-May-22 06:30N 47°31' W 122°28'0 0.0
2015-May-22 06:05N 47°31' W 122°28'0 0.0
2015-May-22 05:33N 47°31' W 122°28'1 1.3
2015-May-22 04:33N 47°31' W 122°30'0 3.1
2015-May-22 04:29N 47°31' W 122°29'2 1.9
2015-May-22 03:34N 47°31' W 122°27'1 2.6
2015-May-22 03:18N 47°31' W 122°28'0 0.1
2015-May-22 02:34N 47°31' W 122°28'0 0.0
2015-May-22 02:33N 47°31' W 122°28'3 2.8
2015-May-22 01:34N 47°31' W 122°24'1 2.5
2015-May-22 01:13N 47°31' W 122°25'2 3.1
2015-May-22 00:33N 47°31' W 122°28'0 0.0
2015-May-22 00:32N 47°31' W 122°28'0 0.0
2015-May-21 23:33N 47°31' W 122°28'0 0.0
2015-May-21 23:32N 47°31' W 122°28'1 0.9
2015-May-21 22:33N 47°31' W 122°27'115.5
2015-May-21 22:31N 47°31' W 122°27'3 2.7
2015-May-21 21:33N 47°31' W 122°24'0 8.5
2015-May-21 21:30N 47°31' W 122°25'2 2.4
2015-May-21 20:33N 47°31' W 122°28'0 0.0
2015-May-21 20:25N 47°31' W 122°28'0 0.0
2015-May-21 19:33N 47°31' W 122°28'0 0.8
2015-May-21 19:25N 47°31' W 122°28'0 0.1
2015-May-21 18:33N 47°31' W 122°28'0 0.2
2015-May-21 18:29N 47°31' W 122°28'3 3.0
2015-May-21 17:33N 47°31' W 122°24'3 4.1
2015-May-21 16:52N 47°31' W 122°28'1 4.2
2015-May-21 16:33N 47°31' W 122°30'0 0.7
2015-May-21 16:23N 47°31' W 122°30'1 1.6
2015-May-21 15:33N 47°31' W 122°28'0 0.2
2015-May-21 15:32N 47°31' W 122°28'0 0.0
2015-May-21 14:34N 47°31' W 122°28'0 0.2
2015-May-21 14:32N 47°31' W 122°28'0 0.0
2015-May-21 13:33N 47°31' W 122°28'0 0.0
2015-May-21 13:32N 47°31' W 122°28'0 0.0
2015-May-21 12:33N 47°31' W 122°28'0 0.0
2015-May-21 12:31N 47°31' W 122°28'0 0.0
2015-May-21 11:33N 47°31' W 122°28'0 0.2
2015-May-21 11:32N 47°31' W 122°28'0 0.0
2015-May-21 10:33N 47°31' W 122°28'0 0.1
2015-May-21 10:31N 47°31' W 122°28'0 0.0
2015-May-21 09:33N 47°31' W 122°28'0 0.0
2015-May-21 09:31N 47°31' W 122°28'0 0.0
2015-May-21 08:33N 47°31' W 122°28'0 0.0
2015-May-21 08:31N 47°31' W 122°28'0 0.0
2015-May-21 07:33N 47°31' W 122°28'0 0.0
2015-May-21 07:30N 47°31' W 122°28'0 0.0
2015-May-21 06:33N 47°31' W 122°28'0 0.0
2015-May-21 06:30N 47°31' W 122°28'0 0.0
2015-May-21 06:05N 47°31' W 122°28'0 0.0
2015-May-21 05:33N 47°31' W 122°28'1 1.3
2015-May-21 04:34N 47°31' W 122°30'0 2.0
2015-May-21 04:29N 47°31' W 122°30'2 2.0
2015-May-21 03:34N 47°31' W 122°27'1 9.1
2015-May-21 03:29N 47°31' W 122°28'0 0.0
2015-May-21 02:34N 47°31' W 122°28'1 4.9
2015-May-21 02:17N 47°31' W 122°30'4 5.5
2015-May-21 01:33N 47°31' W 122°24'1 1.7
2015-May-21 01:12N 47°31' W 122°25'2 3.4
2015-May-21 00:33N 47°31' W 122°28'0 0.0
2015-May-21 00:32N 47°31' W 122°28'0 0.0
2015-May-20 23:34N 47°31' W 122°28'0 0.2
2015-May-20 23:31N 47°31' W 122°28'1 0.6
2015-May-20 22:33N 47°31' W 122°27'113.4
2015-May-20 22:31N 47°31' W 122°28'3 2.9
2015-May-20 21:33N 47°31' W 122°24'0 6.6
2015-May-20 21:30N 47°31' W 122°24'2 2.6
2015-May-20 20:33N 47°31' W 122°28'0 0.1
2015-May-20 20:30N 47°31' W 122°28'2 1.6
2015-May-20 19:33N 47°31' W 122°26'114.3
2015-May-20 19:30N 47°31' W 122°27'1 0.6
2015-May-20 18:34N 47°31' W 122°27'0 3.3
2015-May-20 18:29N 47°31' W 122°28'1 0.9
2015-May-20 17:33N 47°31' W 122°27'1 2.1
2015-May-20 16:54N 47°31' W 122°25'2 6.5
2015-May-20 16:34N 47°31' W 122°28'0 5.4
2015-May-20 16:34N 47°31' W 122°28'3 2.7
2015-May-20 15:33N 47°31' W 122°24'213.0
2015-May-20 15:22N 47°31' W 122°27'0 0.5
2015-May-20 14:33N 47°31' W 122°28'0 0.0
2015-May-20 14:33N 47°31' W 122°28'0 0.0
2015-May-20 13:33N 47°31' W 122°28'0 0.0
2015-May-20 13:33N 47°31' W 122°28'0 0.0
2015-May-20 12:33N 47°31' W 122°28'0 0.0
2015-May-20 12:17N 47°31' W 122°28'0 0.0
2015-May-20 11:33N 47°31' W 122°28'0 0.0
2015-May-20 10:33N 47°31' W 122°28'0 0.1
2015-May-20 10:30N 47°31' W 122°28'0 0.0
2015-May-20 09:33N 47°31' W 122°28'0 0.1
2015-May-20 09:30N 47°31' W 122°28'0 0.0
2015-May-20 08:33N 47°31' W 122°28'0 0.0
2015-May-20 08:29N 47°31' W 122°28'0 0.0
2015-May-20 07:33N 47°31' W 122°28'0 0.0
2015-May-20 07:24N 47°31' W 122°28'0 0.0
2015-May-20 06:34N 47°31' W 122°28'0 0.0
2015-May-20 06:33N 47°31' W 122°28'0 0.0
2015-May-20 06:13N 47°31' W 122°28'0 0.0
2015-May-20 05:33N 47°31' W 122°28'1 0.7
2015-May-20 04:34N 47°31' W 122°29'0 0.0
2015-May-20 04:33N 47°31' W 122°29'1 1.3
2015-May-20 03:33N 47°31' W 122°27'015.9
2015-May-20 03:32N 47°31' W 122°27'0 0.4
2015-May-20 02:33N 47°31' W 122°28'0 0.0
2015-May-20 02:33N 47°31' W 122°28'3 2.8
2015-May-20 01:33N 47°31' W 122°24'1 3.3
2015-May-20 01:13N 47°31' W 122°25'2 2.7
2015-May-20 00:33N 47°31' W 122°28'0 0.0
2015-May-20 00:32N 47°31' W 122°28'0 0.0
2015-May-19 23:33N 47°31' W 122°28'0 0.0
2015-May-19 23:32N 47°31' W 122°28'0 0.1
2015-May-19 22:34N 47°31' W 122°28'0 2.8
2015-May-19 22:31N 47°31' W 122°28'3 2.8
2015-May-19 21:33N 47°31' W 122°24'3 2.7
2015-May-19 20:33N 47°31' W 122°28'2 1.5
2015-May-19 19:33N 47°31' W 122°26'1 1.2
2015-May-19 18:33N 47°31' W 122°27'1 0.8
2015-May-19 17:33N 47°31' W 122°26'1 0.9
2015-May-19 16:34N 47°31' W 122°28'3 2.7
2015-May-19 15:33N 47°31' W 122°24'3 2.7
2015-May-19 14:34N 47°31' W 122°28'0 0.1
2015-May-19 13:33N 47°31' W 122°28'0 0.0
2015-May-19 12:33N 47°31' W 122°28'0 0.0
2015-May-19 11:45N 47°31' W 122°28'0 0.0
2015-May-19 11:33N 47°31' W 122°28'0 0.0
2015-May-19 11:30N 47°31' W 122°28'0 0.0
2015-May-19 10:33N 47°31' W 122°28'0 0.0
2015-May-19 10:30N 47°31' W 122°28'0 0.0
2015-May-19 09:33N 47°31' W 122°28'0 0.0
2015-May-19 09:30N 47°31' W 122°28'0 0.0
2015-May-19 08:33N 47°31' W 122°28'0 0.0
2015-May-19 08:30N 47°31' W 122°28'  

Dump ship's entire track history